sensor_id;sensor_type;location;lat;lon;timestamp;P1;durP1;ratioP1;P2;durP2;ratioP2
19782;SDS011;10051;40.294;-3.754;2023-01-08T00:01:02;32.85;;;18.40;;
19782;SDS011;10051;40.294;-3.754;2023-01-08T00:03:29;32.55;;;19.02;;
19782;SDS011;10051;40.294;-3.754;2023-01-08T00:05:58;34.88;;;19.60;;
19782;SDS011;10051;40.294;-3.754;2023-01-08T00:08:25;31.60;;;18.38;;
19782;SDS011;10051;40.294;-3.754;2023-01-08T00:10:54;32.05;;;19.10;;
19782;SDS011;10051;40.294;-3.754;2023-01-08T00:13:20;32.75;;;19.17;;
19782;SDS011;10051;40.294;-3.754;2023-01-08T00:15:45;29.15;;;17.33;;
19782;SDS011;10051;40.294;-3.754;2023-01-08T00:18:11;32.72;;;17.23;;
19782;SDS011;10051;40.294;-3.754;2023-01-08T00:20:40;25.98;;;15.30;;
19782;SDS011;10051;40.294;-3.754;2023-01-08T00:23:09;26.92;;;15.90;;
19782;SDS011;10051;40.294;-3.754;2023-01-08T00:25:37;23.80;;;13.93;;
19782;SDS011;10051;40.294;-3.754;2023-01-08T00:28:03;22.33;;;13.15;;
19782;SDS011;10051;40.294;-3.754;2023-01-08T00:30:28;23.58;;;13.30;;
19782;SDS011;10051;40.294;-3.754;2023-01-08T00:32:54;23.90;;;12.55;;
19782;SDS011;10051;40.294;-3.754;2023-01-08T00:35:19;23.17;;;12.00;;
19782;SDS011;10051;40.294;-3.754;2023-01-08T00:37:47;21.90;;;12.30;;
19782;SDS011;10051;40.294;-3.754;2023-01-08T00:40:13;22.00;;;12.65;;
19782;SDS011;10051;40.294;-3.754;2023-01-08T00:42:39;20.00;;;11.07;;
19782;SDS011;10051;40.294;-3.754;2023-01-08T00:45:05;16.50;;;9.57;;
19782;SDS011;10051;40.294;-3.754;2023-01-08T00:47:31;15.10;;;9.00;;
19782;SDS011;10051;40.294;-3.754;2023-01-08T00:49:57;12.18;;;7.57;;
19782;SDS011;10051;40.294;-3.754;2023-01-08T00:52:22;8.82;;;5.50;;
19782;SDS011;10051;40.294;-3.754;2023-01-08T00:54:48;8.98;;;5.07;;
19782;SDS011;10051;40.294;-3.754;2023-01-08T00:57:14;6.88;;;4.80;;
19782;SDS011;10051;40.294;-3.754;2023-01-08T00:59:39;8.18;;;4.80;;
19782;SDS011;10051;40.294;-3.754;2023-01-08T01:02:05;6.53;;;4.57;;
19782;SDS011;10051;40.294;-3.754;2023-01-08T01:04:30;6.78;;;4.30;;
19782;SDS011;10051;40.294;-3.754;2023-01-08T01:06:56;6.85;;;4.00;;
19782;SDS011;10051;40.294;-3.754;2023-01-08T01:09:22;7.18;;;4.18;;
19782;SDS011;10051;40.294;-3.754;2023-01-08T01:11:47;6.97;;;4.38;;
19782;SDS011;10051;40.294;-3.754;2023-01-08T01:14:13;6.20;;;4.28;;
19782;SDS011;10051;40.294;-3.754;2023-01-08T01:16:38;7.55;;;4.05;;
19782;SDS011;10051;40.294;-3.754;2023-01-08T01:19:05;8.30;;;3.85;;
19782;SDS011;10051;40.294;-3.754;2023-01-08T01:21:31;7.05;;;4.05;;
19782;SDS011;10051;40.294;-3.754;2023-01-08T01:23:58;5.43;;;3.97;;
19782;SDS011;10051;40.294;-3.754;2023-01-08T01:26:25;5.40;;;3.92;;
19782;SDS011;10051;40.294;-3.754;2023-01-08T01:28:52;5.07;;;3.60;;
19782;SDS011;10051;40.294;-3.754;2023-01-08T01:31:20;7.68;;;4.00;;
19782;SDS011;10051;40.294;-3.754;2023-01-08T01:33:46;8.10;;;4.10;;
19782;SDS011;10051;40.294;-3.754;2023-01-08T01:36:13;5.88;;;3.70;;
19782;SDS011;10051;40.294;-3.754;2023-01-08T01:38:43;6.60;;;4.07;;
19782;SDS011;10051;40.294;-3.754;2023-01-08T01:41:28;4.97;;;3.53;;
19782;SDS011;10051;40.294;-3.754;2023-01-08T01:43:56;5.35;;;3.70;;
19782;SDS011;10051;40.294;-3.754;2023-01-08T01:46:37;10.70;;;3.33;;
19782;SDS011;10051;40.294;-3.754;2023-01-08T01:49:11;4.78;;;3.33;;
19782;SDS011;10051;40.294;-3.754;2023-01-08T01:51:45;4.35;;;3.35;;
19782;SDS011;10051;40.294;-3.754;2023-01-08T01:54:13;4.82;;;3.08;;
19782;SDS011;10051;40.294;-3.754;2023-01-08T01:56:41;4.00;;;2.97;;
19782;SDS011;10051;40.294;-3.754;2023-01-08T01:59:08;5.63;;;2.85;;
19782;SDS011;10051;40.294;-3.754;2023-01-08T02:01:34;3.72;;;2.88;;
19782;SDS011;10051;40.294;-3.754;2023-01-08T02:04:01;3.83;;;2.60;;
19782;SDS011;10051;40.294;-3.754;2023-01-08T02:06:33;5.13;;;2.90;;
19782;SDS011;10051;40.294;-3.754;2023-01-08T02:09:13;4.45;;;2.80;;
19782;SDS011;10051;40.294;-3.754;2023-01-08T02:20:16;5.72;;;3.05;;
19782;SDS011;10051;40.294;-3.754;2023-01-08T02:23:02;5.57;;;3.13;;
19782;SDS011;10051;40.294;-3.754;2023-01-08T02:28:40;4.80;;;2.80;;
19782;SDS011;10051;40.294;-3.754;2023-01-08T02:31:12;4.93;;;2.92;;
19782;SDS011;10051;40.294;-3.754;2023-01-08T02:33:42;4.68;;;3.00;;
19782;SDS011;10051;40.294;-3.754;2023-01-08T02:36:16;5.18;;;2.88;;
19782;SDS011;10051;40.294;-3.754;2023-01-08T02:41:45;4.18;;;2.90;;
19782;SDS011;10051;40.294;-3.754;2023-01-08T02:44:12;4.35;;;2.38;;
19782;SDS011;10051;40.294;-3.754;2023-01-08T02:46:43;4.18;;;2.58;;
19782;SDS011;10051;40.294;-3.754;2023-01-08T02:49:09;3.33;;;2.00;;
19782;SDS011;10051;40.294;-3.754;2023-01-08T02:51:39;3.67;;;2.08;;
19782;SDS011;10051;40.294;-3.754;2023-01-08T02:54:14;4.10;;;2.00;;
19782;SDS011;10051;40.294;-3.754;2023-01-08T02:56:45;3.85;;;2.03;;
19782;SDS011;10051;40.294;-3.754;2023-01-08T02:59:15;3.75;;;2.05;;
19782;SDS011;10051;40.294;-3.754;2023-01-08T03:01:43;2.38;;;1.73;;
19782;SDS011;10051;40.294;-3.754;2023-01-08T03:04:13;2.72;;;1.70;;
19782;SDS011;10051;40.294;-3.754;2023-01-08T03:06:46;3.13;;;1.70;;
19782;SDS011;10051;40.294;-3.754;2023-01-08T03:09:13;2.50;;;1.63;;
19782;SDS011;10051;40.294;-3.754;2023-01-08T03:11:42;2.90;;;1.67;;
19782;SDS011;10051;40.294;-3.754;2023-01-08T03:14:27;2.20;;;1.33;;
19782;SDS011;10051;40.294;-3.754;2023-01-08T03:17:03;2.45;;;1.40;;
19782;SDS011;10051;40.294;-3.754;2023-01-08T03:21:59;1.40;;;1.10;;
19782;SDS011;10051;40.294;-3.754;2023-01-08T03:24:28;1.27;;;0.80;;
19782;SDS011;10051;40.294;-3.754;2023-01-08T03:26:58;1.60;;;0.90;;
19782;SDS011;10051;40.294;-3.754;2023-01-08T03:29:27;2.08;;;0.80;;
19782;SDS011;10051;40.294;-3.754;2023-01-08T03:31:55;1.17;;;0.85;;
19782;SDS011;10051;40.294;-3.754;2023-01-08T03:34:25;0.98;;;0.80;;
19782;SDS011;10051;40.294;-3.754;2023-01-08T03:36:54;1.27;;;1.00;;
19782;SDS011;10051;40.294;-3.754;2023-01-08T03:39:30;3.28;;;1.10;;
19782;SDS011;10051;40.294;-3.754;2023-01-08T03:42:03;1.50;;;0.95;;
19782;SDS011;10051;40.294;-3.754;2023-01-08T03:44:31;1.23;;;1.00;;
19782;SDS011;10051;40.294;-3.754;2023-01-08T03:46:57;1.45;;;0.80;;
19782;SDS011;10051;40.294;-3.754;2023-01-08T03:49:23;1.58;;;1.00;;
19782;SDS011;10051;40.294;-3.754;2023-01-08T03:51:52;1.50;;;0.90;;
19782;SDS011;10051;40.294;-3.754;2023-01-08T03:54:19;2.85;;;1.00;;
19782;SDS011;10051;40.294;-3.754;2023-01-08T03:56:47;1.75;;;1.10;;
19782;SDS011;10051;40.294;-3.754;2023-01-08T03:59:13;1.60;;;1.00;;
19782;SDS011;10051;40.294;-3.754;2023-01-08T04:01:39;2.45;;;1.10;;
19782;SDS011;10051;40.294;-3.754;2023-01-08T04:04:05;2.47;;;1.20;;
19782;SDS011;10051;40.294;-3.754;2023-01-08T04:06:31;1.60;;;1.10;;
19782;SDS011;10051;40.294;-3.754;2023-01-08T04:08:57;1.83;;;1.30;;
19782;SDS011;10051;40.294;-3.754;2023-01-08T04:11:23;1.08;;;0.98;;
19782;SDS011;10051;40.294;-3.754;2023-01-08T04:13:48;1.20;;;1.10;;
19782;SDS011;10051;40.294;-3.754;2023-01-08T04:16:14;1.58;;;1.25;;
19782;SDS011;10051;40.294;-3.754;2023-01-08T04:18:40;2.15;;;1.40;;
19782;SDS011;10051;40.294;-3.754;2023-01-08T04:21:06;2.63;;;1.30;;
19782;SDS011;10051;40.294;-3.754;2023-01-08T04:23:31;1.83;;;1.30;;
19782;SDS011;10051;40.294;-3.754;2023-01-08T04:25:57;1.33;;;1.10;;
19782;SDS011;10051;40.294;-3.754;2023-01-08T04:28:22;2.45;;;1.20;;
19782;SDS011;10051;40.294;-3.754;2023-01-08T04:30:49;1.20;;;1.10;;
19782;SDS011;10051;40.294;-3.754;2023-01-08T04:33:15;1.83;;;1.00;;
19782;SDS011;10051;40.294;-3.754;2023-01-08T04:35:40;3.15;;;1.00;;
19782;SDS011;10051;40.294;-3.754;2023-01-08T04:38:06;5.82;;;1.00;;
19782;SDS011;10051;40.294;-3.754;2023-01-08T04:40:32;3.08;;;1.10;;
19782;SDS011;10051;40.294;-3.754;2023-01-08T04:42:58;3.58;;;0.80;;
19782;SDS011;10051;40.294;-3.754;2023-01-08T04:45:24;2.70;;;1.00;;
19782;SDS011;10051;40.294;-3.754;2023-01-08T04:47:56;2.70;;;0.90;;
19782;SDS011;10051;40.294;-3.754;2023-01-08T04:50:22;2.00;;;0.82;;
19782;SDS011;10051;40.294;-3.754;2023-01-08T04:52:48;2.53;;;0.93;;
19782;SDS011;10051;40.294;-3.754;2023-01-08T04:55:14;3.00;;;1.02;;
19782;SDS011;10051;40.294;-3.754;2023-01-08T04:57:39;1.33;;;0.77;;
19782;SDS011;10051;40.294;-3.754;2023-01-08T05:00:05;1.42;;;1.10;;
19782;SDS011;10051;40.294;-3.754;2023-01-08T05:02:31;2.95;;;0.90;;
19782;SDS011;10051;40.294;-3.754;2023-01-08T05:04:57;1.70;;;0.90;;
19782;SDS011;10051;40.294;-3.754;2023-01-08T05:07:23;1.52;;;0.80;;
19782;SDS011;10051;40.294;-3.754;2023-01-08T05:09:48;1.88;;;1.17;;
19782;SDS011;10051;40.294;-3.754;2023-01-08T05:12:14;1.80;;;0.60;;
19782;SDS011;10051;40.294;-3.754;2023-01-08T05:17:19;2.47;;;0.88;;
19782;SDS011;10051;40.294;-3.754;2023-01-08T05:19:44;2.08;;;0.85;;
19782;SDS011;10051;40.294;-3.754;2023-01-08T05:22:10;3.17;;;1.00;;
19782;SDS011;10051;40.294;-3.754;2023-01-08T05:24:36;5.03;;;1.30;;
19782;SDS011;10051;40.294;-3.754;2023-01-08T05:27:01;1.95;;;0.68;;
19782;SDS011;10051;40.294;-3.754;2023-01-08T05:29:27;1.40;;;0.70;;
19782;SDS011;10051;40.294;-3.754;2023-01-08T05:31:55;1.38;;;0.80;;
19782;SDS011;10051;40.294;-3.754;2023-01-08T05:34:21;2.05;;;0.80;;
19782;SDS011;10051;40.294;-3.754;2023-01-08T05:36:46;2.08;;;0.90;;
19782;SDS011;10051;40.294;-3.754;2023-01-08T05:39:12;2.13;;;0.85;;
19782;SDS011;10051;40.294;-3.754;2023-01-08T05:41:37;2.33;;;0.80;;
19782;SDS011;10051;40.294;-3.754;2023-01-08T05:44:03;2.42;;;0.82;;
19782;SDS011;10051;40.294;-3.754;2023-01-08T05:46:29;2.92;;;0.60;;
19782;SDS011;10051;40.294;-3.754;2023-01-08T05:48:54;4.45;;;0.82;;
19782;SDS011;10051;40.294;-3.754;2023-01-08T05:51:21;4.97;;;0.88;;
19782;SDS011;10051;40.294;-3.754;2023-01-08T05:53:47;1.98;;;0.80;;
19782;SDS011;10051;40.294;-3.754;2023-01-08T05:56:12;3.38;;;0.80;;
19782;SDS011;10051;40.294;-3.754;2023-01-08T05:58:38;2.28;;;0.80;;
19782;SDS011;10051;40.294;-3.754;2023-01-08T06:01:05;2.03;;;0.70;;
19782;SDS011;10051;40.294;-3.754;2023-01-08T06:03:33;1.27;;;0.65;;
19782;SDS011;10051;40.294;-3.754;2023-01-08T06:06:02;1.98;;;0.65;;
19782;SDS011;10051;40.294;-3.754;2023-01-08T06:08:30;3.13;;;0.80;;
19782;SDS011;10051;40.294;-3.754;2023-01-08T06:10:59;2.13;;;0.90;;
19782;SDS011;10051;40.294;-3.754;2023-01-08T06:13:26;2.00;;;0.80;;
19782;SDS011;10051;40.294;-3.754;2023-01-08T06:15:52;3.65;;;0.90;;
19782;SDS011;10051;40.294;-3.754;2023-01-08T06:18:18;3.70;;;0.90;;
19782;SDS011;10051;40.294;-3.754;2023-01-08T06:20:43;3.03;;;0.65;;
19782;SDS011;10051;40.294;-3.754;2023-01-08T06:23:09;1.70;;;0.77;;
19782;SDS011;10051;40.294;-3.754;2023-01-08T06:25:35;1.63;;;0.60;;
19782;SDS011;10051;40.294;-3.754;2023-01-08T06:28:01;1.88;;;0.63;;
19782;SDS011;10051;40.294;-3.754;2023-01-08T06:30:28;1.90;;;0.70;;
19782;SDS011;10051;40.294;-3.754;2023-01-08T06:32:54;0.68;;;0.50;;
19782;SDS011;10051;40.294;-3.754;2023-01-08T06:35:23;2.15;;;0.70;;
19782;SDS011;10051;40.294;-3.754;2023-01-08T06:37:49;1.35;;;0.60;;
19782;SDS011;10051;40.294;-3.754;2023-01-08T06:40:14;0.75;;;0.50;;
19782;SDS011;10051;40.294;-3.754;2023-01-08T06:42:40;1.10;;;0.57;;
19782;SDS011;10051;40.294;-3.754;2023-01-08T06:45:07;0.68;;;0.50;;
19782;SDS011;10051;40.294;-3.754;2023-01-08T06:47:33;1.85;;;1.27;;
19782;SDS011;10051;40.294;-3.754;2023-01-08T06:49:59;1.48;;;0.70;;
19782;SDS011;10051;40.294;-3.754;2023-01-08T06:52:24;1.98;;;0.57;;
19782;SDS011;10051;40.294;-3.754;2023-01-08T06:54:50;1.05;;;0.43;;
19782;SDS011;10051;40.294;-3.754;2023-01-08T06:57:16;0.82;;;0.40;;
19782;SDS011;10051;40.294;-3.754;2023-01-08T06:59:41;1.13;;;0.50;;
19782;SDS011;10051;40.294;-3.754;2023-01-08T07:02:10;0.93;;;0.50;;
19782;SDS011;10051;40.294;-3.754;2023-01-08T07:04:38;1.02;;;0.50;;
19782;SDS011;10051;40.294;-3.754;2023-01-08T07:07:04;0.63;;;0.40;;
19782;SDS011;10051;40.294;-3.754;2023-01-08T07:09:30;0.90;;;0.40;;
19782;SDS011;10051;40.294;-3.754;2023-01-08T07:11:55;2.67;;;0.60;;
19782;SDS011;10051;40.294;-3.754;2023-01-08T07:14:27;1.50;;;0.60;;
19782;SDS011;10051;40.294;-3.754;2023-01-08T07:16:55;1.08;;;0.40;;
19782;SDS011;10051;40.294;-3.754;2023-01-08T07:19:20;0.40;;;0.40;;
19782;SDS011;10051;40.294;-3.754;2023-01-08T07:21:46;1.90;;;0.40;;
19782;SDS011;10051;40.294;-3.754;2023-01-08T07:24:12;1.23;;;0.40;;
19782;SDS011;10051;40.294;-3.754;2023-01-08T07:26:40;1.67;;;0.40;;
19782;SDS011;10051;40.294;-3.754;2023-01-08T07:29:06;0.45;;;0.40;;
19782;SDS011;10051;40.294;-3.754;2023-01-08T07:31:34;2.10;;;0.63;;
19782;SDS011;10051;40.294;-3.754;2023-01-08T07:34:10;2.08;;;0.70;;
19782;SDS011;10051;40.294;-3.754;2023-01-08T07:36:36;1.42;;;0.75;;
19782;SDS011;10051;40.294;-3.754;2023-01-08T07:39:01;1.27;;;0.80;;
19782;SDS011;10051;40.294;-3.754;2023-01-08T07:41:27;0.95;;;0.80;;
19782;SDS011;10051;40.294;-3.754;2023-01-08T07:43:53;1.15;;;0.75;;
19782;SDS011;10051;40.294;-3.754;2023-01-08T07:46:18;0.98;;;0.77;;
19782;SDS011;10051;40.294;-3.754;2023-01-08T07:48:44;0.98;;;0.90;;
19782;SDS011;10051;40.294;-3.754;2023-01-08T07:51:10;1.75;;;0.80;;
19782;SDS011;10051;40.294;-3.754;2023-01-08T07:53:35;1.25;;;0.70;;
19782;SDS011;10051;40.294;-3.754;2023-01-08T07:56:02;1.83;;;0.90;;
19782;SDS011;10051;40.294;-3.754;2023-01-08T07:58:32;1.00;;;0.80;;
19782;SDS011;10051;40.294;-3.754;2023-01-08T08:00:58;0.90;;;0.90;;
19782;SDS011;10051;40.294;-3.754;2023-01-08T08:03:27;0.70;;;0.70;;
19782;SDS011;10051;40.294;-3.754;2023-01-08T08:05:53;0.80;;;0.70;;
19782;SDS011;10051;40.294;-3.754;2023-01-08T08:08:18;0.98;;;0.70;;
19782;SDS011;10051;40.294;-3.754;2023-01-08T08:10:45;1.20;;;0.80;;
19782;SDS011;10051;40.294;-3.754;2023-01-08T08:13:11;1.48;;;0.70;;
19782;SDS011;10051;40.294;-3.754;2023-01-08T08:15:37;0.60;;;0.40;;
19782;SDS011;10051;40.294;-3.754;2023-01-08T08:18:04;0.65;;;0.50;;
19782;SDS011;10051;40.294;-3.754;2023-01-08T08:20:30;0.30;;;0.30;;
19782;SDS011;10051;40.294;-3.754;2023-01-08T08:23:00;0.60;;;0.40;;
19782;SDS011;10051;40.294;-3.754;2023-01-08T08:25:26;0.32;;;0.32;;
19782;SDS011;10051;40.294;-3.754;2023-01-08T08:27:55;0.30;;;0.30;;
19782;SDS011;10051;40.294;-3.754;2023-01-08T08:30:22;0.38;;;0.30;;
19782;SDS011;10051;40.294;-3.754;2023-01-08T08:32:52;0.43;;;0.35;;
19782;SDS011;10051;40.294;-3.754;2023-01-08T08:35:18;1.20;;;0.70;;
19782;SDS011;10051;40.294;-3.754;2023-01-08T08:37:44;0.50;;;0.50;;
19782;SDS011;10051;40.294;-3.754;2023-01-08T08:40:12;0.65;;;0.30;;
19782;SDS011;10051;40.294;-3.754;2023-01-08T08:42:38;0.30;;;0.30;;
19782;SDS011;10051;40.294;-3.754;2023-01-08T08:45:04;0.40;;;0.40;;
19782;SDS011;10051;40.294;-3.754;2023-01-08T08:47:30;1.67;;;0.50;;
19782;SDS011;10051;40.294;-3.754;2023-01-08T08:49:56;1.33;;;0.88;;
19782;SDS011;10051;40.294;-3.754;2023-01-08T08:52:22;2.35;;;0.90;;
19782;SDS011;10051;40.294;-3.754;2023-01-08T08:54:47;1.13;;;0.80;;
19782;SDS011;10051;40.294;-3.754;2023-01-08T08:57:13;1.05;;;0.80;;
19782;SDS011;10051;40.294;-3.754;2023-01-08T08:59:38;0.50;;;0.50;;
19782;SDS011;10051;40.294;-3.754;2023-01-08T09:02:04;0.80;;;0.70;;
19782;SDS011;10051;40.294;-3.754;2023-01-08T09:04:32;0.82;;;0.52;;
19782;SDS011;10051;40.294;-3.754;2023-01-08T09:06:58;1.50;;;0.50;;
19782;SDS011;10051;40.294;-3.754;2023-01-08T09:09:26;1.33;;;0.50;;
19782;SDS011;10051;40.294;-3.754;2023-01-08T09:11:52;1.55;;;0.88;;
19782;SDS011;10051;40.294;-3.754;2023-01-08T09:14:18;1.23;;;0.70;;
19782;SDS011;10051;40.294;-3.754;2023-01-08T09:16:45;0.63;;;0.60;;
19782;SDS011;10051;40.294;-3.754;2023-01-08T11:52:28;8.82;;;2.10;;
19782;SDS011;10051;40.294;-3.754;2023-01-08T11:55:22;4.30;;;1.67;;
19782;SDS011;10051;40.294;-3.754;2023-01-08T11:58:16;5.30;;;1.60;;
19782;SDS011;10051;40.294;-3.754;2023-01-08T12:07:10;4.13;;;1.60;;
19782;SDS011;10051;40.294;-3.754;2023-01-08T12:10:02;4.30;;;1.60;;
19782;SDS011;10051;40.294;-3.754;2023-01-08T12:12:42;4.60;;;1.60;;
19782;SDS011;10051;40.294;-3.754;2023-01-08T12:15:49;5.55;;;2.58;;
19782;SDS011;10051;40.294;-3.754;2023-01-08T12:18:28;6.03;;;2.10;;
19782;SDS011;10051;40.294;-3.754;2023-01-08T12:29:41;5.75;;;1.58;;
19782;SDS011;10051;40.294;-3.754;2023-01-08T12:32:32;3.50;;;1.80;;
19782;SDS011;10051;40.294;-3.754;2023-01-08T12:35:16;5.05;;;1.70;;
19782;SDS011;10051;40.294;-3.754;2023-01-08T12:44:09;3.97;;;1.52;;
19782;SDS011;10051;40.294;-3.754;2023-01-08T12:46:26;6.00;;;1.95;;
19782;SDS011;10051;40.294;-3.754;2023-01-08T12:48:55;2.83;;;1.30;;
19782;SDS011;10051;40.294;-3.754;2023-01-08T12:51:27;1.98;;;0.95;;
19782;SDS011;10051;40.294;-3.754;2023-01-08T12:57:04;4.35;;;1.50;;
19782;SDS011;10051;40.294;-3.754;2023-01-08T13:04:43;1.80;;;1.15;;
19782;SDS011;10051;40.294;-3.754;2023-01-08T13:07:18;3.70;;;1.50;;
19782;SDS011;10051;40.294;-3.754;2023-01-08T13:09:52;1.83;;;1.00;;
19782;SDS011;10051;40.294;-3.754;2023-01-08T13:12:23;2.38;;;1.05;;
19782;SDS011;10051;40.294;-3.754;2023-01-08T13:14:56;2.63;;;1.10;;
19782;SDS011;10051;40.294;-3.754;2023-01-08T13:17:21;1.67;;;0.90;;
19782;SDS011;10051;40.294;-3.754;2023-01-08T13:19:53;3.25;;;1.00;;
19782;SDS011;10051;40.294;-3.754;2023-01-08T13:25:06;1.63;;;1.02;;
19782;SDS011;10051;40.294;-3.754;2023-01-08T13:27:34;1.45;;;0.90;;
19782;SDS011;10051;40.294;-3.754;2023-01-08T13:30:02;1.73;;;0.90;;
19782;SDS011;10051;40.294;-3.754;2023-01-08T13:32:44;2.78;;;1.00;;
19782;SDS011;10051;40.294;-3.754;2023-01-08T13:37:39;2.95;;;1.20;;
19782;SDS011;10051;40.294;-3.754;2023-01-08T13:43:19;1.65;;;1.02;;
19782;SDS011;10051;40.294;-3.754;2023-01-08T13:48:28;1.63;;;0.90;;
19782;SDS011;10051;40.294;-3.754;2023-01-08T13:50:58;1.60;;;1.00;;
19782;SDS011;10051;40.294;-3.754;2023-01-08T13:53:24;3.20;;;1.23;;
19782;SDS011;10051;40.294;-3.754;2023-01-08T13:56:06;1.90;;;0.80;;
19782;SDS011;10051;40.294;-3.754;2023-01-08T13:58:51;2.35;;;1.10;;
19782;SDS011;10051;40.294;-3.754;2023-01-08T14:01:18;1.65;;;1.00;;
19782;SDS011;10051;40.294;-3.754;2023-01-08T14:03:46;2.00;;;0.90;;
19782;SDS011;10051;40.294;-3.754;2023-01-08T14:06:17;1.33;;;0.60;;
19782;SDS011;10051;40.294;-3.754;2023-01-08T14:08:48;2.33;;;1.00;;
19782;SDS011;10051;40.294;-3.754;2023-01-08T14:11:15;2.17;;;1.00;;
19782;SDS011;10051;40.294;-3.754;2023-01-08T14:13:41;2.58;;;0.80;;
19782;SDS011;10051;40.294;-3.754;2023-01-08T14:16:09;2.92;;;1.10;;
19782;SDS011;10051;40.294;-3.754;2023-01-08T14:18:41;1.77;;;1.23;;
19782;SDS011;10051;40.294;-3.754;2023-01-08T14:21:08;4.40;;;2.30;;
19782;SDS011;10051;40.294;-3.754;2023-01-08T14:23:40;5.97;;;2.90;;
19782;SDS011;10051;40.294;-3.754;2023-01-08T14:28:57;6.25;;;2.38;;
19782;SDS011;10051;40.294;-3.754;2023-01-08T14:31:23;5.32;;;2.00;;
19782;SDS011;10051;40.294;-3.754;2023-01-08T14:34:15;5.35;;;2.38;;
19782;SDS011;10051;40.294;-3.754;2023-01-08T14:36:42;1.65;;;0.90;;
19782;SDS011;10051;40.294;-3.754;2023-01-08T14:39:09;1.67;;;1.10;;
19782;SDS011;10051;40.294;-3.754;2023-01-08T14:42:05;3.20;;;1.33;;
19782;SDS011;10051;40.294;-3.754;2023-01-08T14:44:57;4.15;;;1.30;;
19782;SDS011;10051;40.294;-3.754;2023-01-08T14:47:28;2.03;;;0.98;;
19782;SDS011;10051;40.294;-3.754;2023-01-08T14:49:58;3.00;;;1.23;;
19782;SDS011;10051;40.294;-3.754;2023-01-08T14:52:25;1.70;;;1.27;;
19782;SDS011;10051;40.294;-3.754;2023-01-08T14:54:52;3.47;;;1.58;;
19782;SDS011;10051;40.294;-3.754;2023-01-08T14:57:20;2.55;;;1.35;;
19782;SDS011;10051;40.294;-3.754;2023-01-08T14:59:49;2.33;;;0.70;;
19782;SDS011;10051;40.294;-3.754;2023-01-08T15:02:26;0.52;;;0.52;;
19782;SDS011;10051;40.294;-3.754;2023-01-08T15:05:01;1.23;;;0.52;;
19782;SDS011;10051;40.294;-3.754;2023-01-08T15:07:41;1.63;;;0.60;;
19782;SDS011;10051;40.294;-3.754;2023-01-08T15:10:37;2.00;;;0.68;;
19782;SDS011;10051;40.294;-3.754;2023-01-08T15:13:05;0.95;;;0.50;;
19782;SDS011;10051;40.294;-3.754;2023-01-08T15:15:35;2.65;;;0.60;;
19782;SDS011;10051;40.294;-3.754;2023-01-08T15:18:14;0.93;;;0.60;;
19782;SDS011;10051;40.294;-3.754;2023-01-08T15:20:39;0.63;;;0.60;;
19782;SDS011;10051;40.294;-3.754;2023-01-08T15:26:11;0.60;;;0.57;;
19782;SDS011;10051;40.294;-3.754;2023-01-08T15:28:48;1.27;;;0.60;;
19782;SDS011;10051;40.294;-3.754;2023-01-08T15:34:09;3.25;;;0.55;;
19782;SDS011;10051;40.294;-3.754;2023-01-08T15:36:37;0.90;;;0.50;;
19782;SDS011;10051;40.294;-3.754;2023-01-08T15:39:03;2.67;;;0.63;;
19782;SDS011;10051;40.294;-3.754;2023-01-08T15:41:33;1.30;;;0.80;;
19782;SDS011;10051;40.294;-3.754;2023-01-08T15:44:21;2.28;;;0.70;;
19782;SDS011;10051;40.294;-3.754;2023-01-08T15:46:47;2.03;;;0.70;;
19782;SDS011;10051;40.294;-3.754;2023-01-08T15:49:16;0.93;;;0.50;;
19782;SDS011;10051;40.294;-3.754;2023-01-08T15:51:45;1.98;;;0.65;;
19782;SDS011;10051;40.294;-3.754;2023-01-08T15:54:14;1.90;;;0.70;;
19782;SDS011;10051;40.294;-3.754;2023-01-08T15:56:40;1.38;;;0.80;;
19782;SDS011;10051;40.294;-3.754;2023-01-08T15:59:11;1.83;;;0.75;;
19782;SDS011;10051;40.294;-3.754;2023-01-08T16:01:37;2.33;;;0.80;;
19782;SDS011;10051;40.294;-3.754;2023-01-08T16:04:02;1.92;;;0.70;;
19782;SDS011;10051;40.294;-3.754;2023-01-08T16:06:28;2.60;;;0.90;;
19782;SDS011;10051;40.294;-3.754;2023-01-08T16:08:54;1.58;;;0.70;;
19782;SDS011;10051;40.294;-3.754;2023-01-08T16:11:24;1.55;;;0.70;;
19782;SDS011;10051;40.294;-3.754;2023-01-08T16:13:50;1.38;;;0.70;;
19782;SDS011;10051;40.294;-3.754;2023-01-08T16:16:16;1.08;;;0.70;;
19782;SDS011;10051;40.294;-3.754;2023-01-08T16:18:42;2.63;;;0.70;;
19782;SDS011;10051;40.294;-3.754;2023-01-08T16:21:08;2.40;;;0.70;;
19782;SDS011;10051;40.294;-3.754;2023-01-08T16:23:38;2.10;;;0.88;;
19782;SDS011;10051;40.294;-3.754;2023-01-08T16:26:11;1.85;;;0.80;;
19782;SDS011;10051;40.294;-3.754;2023-01-08T16:28:37;1.25;;;0.90;;
19782;SDS011;10051;40.294;-3.754;2023-01-08T16:31:03;1.42;;;0.77;;
19782;SDS011;10051;40.294;-3.754;2023-01-08T16:33:30;1.42;;;0.70;;
19782;SDS011;10051;40.294;-3.754;2023-01-08T16:35:59;1.17;;;0.60;;
19782;SDS011;10051;40.294;-3.754;2023-01-08T16:38:30;0.65;;;0.60;;
19782;SDS011;10051;40.294;-3.754;2023-01-08T16:40:56;1.10;;;0.80;;
19782;SDS011;10051;40.294;-3.754;2023-01-08T16:43:26;2.22;;;0.57;;
19782;SDS011;10051;40.294;-3.754;2023-01-08T16:45:53;2.35;;;0.70;;
19782;SDS011;10051;40.294;-3.754;2023-01-08T16:48:19;1.08;;;0.60;;
19782;SDS011;10051;40.294;-3.754;2023-01-08T16:50:45;0.55;;;0.50;;
19782;SDS011;10051;40.294;-3.754;2023-01-08T16:53:12;0.85;;;0.50;;
19782;SDS011;10051;40.294;-3.754;2023-01-08T16:55:38;1.13;;;0.55;;
19782;SDS011;10051;40.294;-3.754;2023-01-08T16:58:05;1.40;;;0.95;;
19782;SDS011;10051;40.294;-3.754;2023-01-08T17:00:36;4.68;;;1.40;;
19782;SDS011;10051;40.294;-3.754;2023-01-08T17:03:02;4.57;;;1.77;;
19782;SDS011;10051;40.294;-3.754;2023-01-08T17:05:30;5.90;;;2.03;;
19782;SDS011;10051;40.294;-3.754;2023-01-08T17:07:56;2.70;;;1.48;;
19782;SDS011;10051;40.294;-3.754;2023-01-08T17:10:22;4.78;;;2.17;;
19782;SDS011;10051;40.294;-3.754;2023-01-08T17:12:49;6.00;;;1.65;;
19782;SDS011;10051;40.294;-3.754;2023-01-08T17:15:15;2.90;;;1.45;;
19782;SDS011;10051;40.294;-3.754;2023-01-08T17:17:41;2.70;;;1.40;;
19782;SDS011;10051;40.294;-3.754;2023-01-08T17:20:09;2.78;;;1.50;;
19782;SDS011;10051;40.294;-3.754;2023-01-08T17:22:36;6.03;;;2.53;;
19782;SDS011;10051;40.294;-3.754;2023-01-08T17:25:02;4.00;;;1.73;;
19782;SDS011;10051;40.294;-3.754;2023-01-08T17:27:33;3.78;;;1.65;;
19782;SDS011;10051;40.294;-3.754;2023-01-08T17:29:59;3.20;;;1.90;;
19782;SDS011;10051;40.294;-3.754;2023-01-08T17:32:27;2.13;;;1.40;;
19782;SDS011;10051;40.294;-3.754;2023-01-08T17:34:55;3.15;;;1.48;;
19782;SDS011;10051;40.294;-3.754;2023-01-08T17:37:21;3.15;;;1.00;;
19782;SDS011;10051;40.294;-3.754;2023-01-08T17:39:50;3.30;;;1.05;;
19782;SDS011;10051;40.294;-3.754;2023-01-08T17:42:15;1.23;;;0.90;;
19782;SDS011;10051;40.294;-3.754;2023-01-08T17:44:51;1.45;;;0.90;;
19782;SDS011;10051;40.294;-3.754;2023-01-08T17:47:21;3.22;;;1.50;;
19782;SDS011;10051;40.294;-3.754;2023-01-08T17:49:48;1.42;;;0.93;;
19782;SDS011;10051;40.294;-3.754;2023-01-08T17:52:15;1.30;;;0.88;;
19782;SDS011;10051;40.294;-3.754;2023-01-08T17:54:42;3.53;;;1.30;;
19782;SDS011;10051;40.294;-3.754;2023-01-08T17:57:10;1.73;;;1.30;;
19782;SDS011;10051;40.294;-3.754;2023-01-08T17:59:40;1.80;;;1.08;;
19782;SDS011;10051;40.294;-3.754;2023-01-08T18:02:09;2.08;;;0.90;;
19782;SDS011;10051;40.294;-3.754;2023-01-08T18:04:37;2.05;;;1.02;;
19782;SDS011;10051;40.294;-3.754;2023-01-08T18:07:10;2.97;;;0.95;;
19782;SDS011;10051;40.294;-3.754;2023-01-08T18:09:35;2.33;;;1.30;;
19782;SDS011;10051;40.294;-3.754;2023-01-08T18:12:01;4.50;;;1.17;;
19782;SDS011;10051;40.294;-3.754;2023-01-08T18:14:30;4.00;;;1.23;;
19782;SDS011;10051;40.294;-3.754;2023-01-08T18:16:56;4.28;;;1.27;;
19782;SDS011;10051;40.294;-3.754;2023-01-08T18:19:24;2.80;;;1.20;;
19782;SDS011;10051;40.294;-3.754;2023-01-08T18:21:50;2.22;;;0.90;;
19782;SDS011;10051;40.294;-3.754;2023-01-08T18:24:16;1.85;;;1.00;;